Tuesday, May 21, 2019, 6:43 PM GMT
Back to Local

CYQM, Moncton, N. B.

Location: , , Canada Lat: 46.117
Local Time: 6:43 PM GMT (18:43 GMT) Lon: -64.683
Time Zone: GMT Elev: 232 ft

Show me the last for .
Show Decoded

2019-05-21 18:05 METAR CYQM 211805Z 32012KT 3SM RA BR BKN004 BKN015 OVC025 07/07 A2941 RMK
                 SF5SC1SC2 SLP964 =
2019-05-21 18:00 METAR CYQM 211800Z 33008KT 3SM -RA BR BKN004 OVC020 07/07 A2942 RMK SF7SC1
                 SLP966 =
2019-05-21 17:24 METAR CYQM 211724Z 32007KT 4SM -RA BR BKN005 OVC013 07/07 A2944 RMK SF6SC2
                 SLP974 =
2019-05-21 17:00 METAR CYQM 211700Z 31009KT 3SM RA BR BKN005 OVC017 08/08 A2943 RMK SF7SC1 /R10/
                 SLP971 =
2019-05-21 16:51 METAR CYQM 211651Z 31011KT 3SM RA BR OVC005 08/07 A2943 RMK SF8 SLP970 =
2019-05-21 16:22 METAR CYQM 211622Z 33009KT 8SM R06/5000VP6000FT/U -RA BKN005 OVC020 08/08 A2943
                 RMK SF7SC1 SLP969 =
2019-05-21 16:00 METAR CYQM 211600Z 34008KT 3SM RA BR BKN004 OVC018 08/08 A2943 RMK SF7SC1 SLP971
                 =
2019-05-21 15:42 METAR CYQM 211542Z 01006KT 3SM RA BR BKN005 OVC018 08/08 A2943 RMK SF7SC1 SLP970
                 =
2019-05-21 15:25 METAR CYQM 211525Z 35007KT 2 1/2SM RA BR OVC004 08/08 A2944 RMK SF8 SLP973 =
2019-05-21 15:14 METAR CYQM 211514Z 36006KT 5SM -RA BR BKN004 OVC015 08/08 A2944 RMK SF7SC1
                 SLP973 =
2019-05-21 15:00 METAR CYQM 211500Z 02008KT 3SM RA BR BKN004 OVC014 08/08 A2943 RMK SF7SC1 PRESFR
                 SLP970 =
2019-05-21 14:49 METAR CYQM 211449Z 03008KT 3SM RA BR BKN004 OVC014 08/08 A2944 RMK SF7SC1 SLP973
                 =
2019-05-21 14:35 METAR CYQM 211435Z 36010KT 5SM -RADZ BR BKN004 OVC008 08/08 A2944 RMK SF7SF1
                 SLP973 =
2019-05-21 14:17 METAR CYQM 211417Z 01009KT 6SM -RA BR OVC004 08/08 A2945 RMK SF8 SLP977 =
2019-05-21 14:10 METAR CYQM 211410Z 01008KT 3SM -RA BR OVC003 08/08 A2946 RMK SF8 SLP979 =
2019-05-21 14:00 METAR CYQM 211400Z 02010KT 3SM RA BR SCT002 BKN004 BKN045 OVC075 07/07 A2944 RMK
                 SF3SF2SC2AC1 PRESFR SLP974 =
2019-05-21 13:54 METAR CYQM 211354Z 05008KT 2SM RA BR BKN003 BKN045 OVC075 07/07 A2947 RMK
                 SF5SC2AC1 PRESFR SLP982 =
2019-05-21 13:00 METAR CYQM 211300Z 02008KT 3SM -RA BR BKN003 OVC015 07/07 A2950 RMK SF7SC1
                 SLP993 =
2019-05-21 12:20 METAR CYQM 211220Z 02004KT 1 3/4SM -RA BR OVC003 07/07 A2952 RMK SF8 SLP999 =
2019-05-21 12:09 METAR CYQM 211209Z 02006KT 1SM R06/P6000FT/N RA BR OVC002 07/07 A2951 RMK SF8
                 SLP997 =
2019-05-21 12:00 METAR CYQM 211200Z 05004KT 1 1/4SM -RADZ BR BKN002 OVC007 07/07 A2951 RMK SF6SF2
                 SLP998 =
2019-05-21 11:15 METAR CYQM 211115Z 36005KT 1 1/4SM -RADZ BR BKN002 OVC006 07/07 A2955 RMK SF6SF2
                 PRESRR SLP009 =
2019-05-21 11:00 METAR CYQM 211100Z 02007KT 1 1/4SM -DZ BR FEW001 VV003 07/07 A2953 RMK SF2FG6
                 SLP004 =
2019-05-21 10:42 METAR CYQM 211042Z 36008KT 1SM R06/P6000FT/U -DZ BR OVC002 07/07 A2953 RMK SF8
                 SLP004 =
2019-05-21 10:29 METAR CYQM 211029Z 35008KT 3/4SM R06/6000FT/U -DZ BR OVC002 07/07 A2954 RMK SF8
                 SLP005 =
2019-05-21 10:00 METAR CYQM 211000Z 01005KT 5/8SM R06/6000FT/U -DZ BR OVC002 07/07 A2954 RMK SF8
                 SLP007 =
2019-05-21 09:33 METAR CYQM 210933Z 36005KT 5/8SM R06/P6000FT/N -DZ BR OVC002 07/07 A2955 RMK SF8
                 SLP009 =
2019-05-21 09:09 METAR CYQM 210909Z 36007KT 1/4SM R06/4500FT/N -DZ FG VV002 07/07 A2955 RMK FG8
                 SLP010 =
2019-05-21 09:00 METAR CYQM 210900Z 02005KT 3/8SM R06/5000FT/N FG VV002 07/07 A2955 RMK FG8
                 SLP009 =
2019-05-21 08:28 METAR CYQM 210828Z 05005KT 1/2SM R06/P6000FT/N FG VV002 07/07 A2955 RMK FG8
                 SLP010 =
2019-05-21 08:00 METAR CYQM 210800Z 03004KT 5/8SM R06/6000FT/D BR VV003 08/08 A2955 RMK FG8
                 SLP011 =
2019-05-21 07:44 METAR CYQM 210744Z 04005KT 3/4SM R06/P6000FT/U -DZ BR VV003 08/08 A2955 RMK FG8
                 SLP010 =
2019-05-21 07:25 METAR CYQM 210725Z 02003KT 1SM R06/P6000FT/U -DZ BR VV003 08/08 A2956 RMK FG8
                 SLP014 =
2019-05-21 07:05 METAR CYQM 210705Z 04005KT 3/4SM R06/5000FT/N -RADZ BR VV003 08/08 A2957 RMK FG8
                 SLP017 =
2019-05-21 07:00 METAR CYQM 210700Z 02005KT 3/8SM R06/4000V5500FT/U -DZ FG VV002 08/08 A2958 RMK
                 FG8 SLP019 =
2019-05-21 06:55 METAR CYQM 210655Z 01005KT 1/4SM R06/4000FT/U -DZ FG VV002 08/08 A2958 RMK FG8
                 SLP019 =
2019-05-21 06:00 METAR CYQM 210600Z 02005KT 5/8SM R06/4500VP6000FT/D -DZ BR VV003 08/08 A2960 RMK
                 FG8 SLP025 =
2019-05-21 05:54 METAR CYQM 210554Z 03005KT 5/8SM R06/5500VP6000FT/D -DZ BR VV003 08/08 A2959 RMK
                 FG8 SLP024 =
2019-05-21 05:39 METAR CYQM 210539Z 04005KT 030V090 3/4SM R06/P6000FT/D -DZ BR OVC002 08/08 A2960
                 RMK SF8 SLP025 =
2019-05-21 05:30 METAR CYQM 210530Z 08003KT 1SM R06/P6000FT/N -DZ BR OVC002 08/08 A2961 RMK SF8
                 SLP029 =
2019-05-21 05:00 METAR CYQM 210500Z 07004KT 2 1/2SM -DZ BR OVC002 08/08 A2961 RMK SF8 SLP030 =
2019-05-21 04:43 METAR CYQM 210443Z 06005KT 4SM -DZ BR OVC002 08/08 A2962 RMK SF8 SLP033 =
2019-05-21 04:21 METAR CYQM 210421Z 07006KT 6SM -DZ BR OVC003 08/08 A2962 RMK SF8 PRESFR SLP035 =
2019-05-21 04:00 METAR CYQM 210400Z 09004KT 15SM OVC003 08/08 A2964 RMK SF8 SLP040 =
2019-05-21 03:35 METAR CYQM 210335Z 06005KT 15SM OVC003 09/09 A2963 RMK SF8 SLP038 =
2019-05-21 03:14 METAR CYQM 210314Z 06004KT 12SM -DZ OVC003 09/09 A2965 RMK SF8 SLP042 =
2019-05-21 03:00 METAR CYQM 210300Z 05005KT 12SM -RA OVC003 09/09 A2965 RMK SF8 SLP043 =
2019-05-21 02:52 METAR CYQM 210252Z 05005KT 030V100 10SM -RA OVC003 09/09 A2965 RMK SF8 SLP042 =
2019-05-21 02:39 METAR CYQM 210239Z 06004KT 040V100 7SM -RA OVC004 09/09 A2965 RMK SF8 SLP045 =
2019-05-21 02:28 METAR CYQM 210228Z 10005KT 4SM -RA BR BKN003 OVC033 09/09 A2966 RMK SF7SC1
                 PRESFR SLP047 =
2019-05-21 02:24 METAR CYQM 210224Z 11007KT 1 1/2SM RA BR BKN003 OVC033 09/09 A2965 RMK SF5SC3
                 PRESFR SLP044
2019-05-21 02:17 METAR CYQM 210217Z VRB06KT 1SM R06/6000FT/U RA BR SCT002 BKN012 OVC073 08/08
                 A2967 RMK SF4SC3AC1 SLP050 =
2019-05-21 02:08 METAR CYQM 210208Z 08003KT 3/4SM R06/5000FT/U -RA BR VV003 08/08 A2968 RMK FG8
                 SLP053 =
2019-05-21 02:00 METAR CYQM 210200Z 06006KT 5/8SM R06/3500V5000FT/U -RA BR VV002 08/08 A2967 RMK
                 FG8 SLP051 =
2019-05-21 01:26 METAR CYQM 210126Z 03007KT 1/4SM R06/2400FT/D -RA FG VV002 09/09 A2968 RMK FG8
                 SLP054 =
2019-05-21 01:00 METAR CYQM 210100Z 03007KT 1/8SM R06/2400FT/N FG VV002 09/09 A2969 RMK FU8
                 SLP057 =
2019-05-21 00:03 METAR CYQM 210003Z 07004KT 3/8SM R06/6000FT/D FG VV002 10/10 A2969 RMK FG8
                 SLP056 =
2019-05-21 00:00 METAR CYQM 210000Z 08005KT 1/2SM R06/P6000FT/D FG VV002 10/10 A2969 RMK FG8
                 SLP056 =
2019-05-20 23:54 METAR CYQM 202354Z 08004KT 1/2SM R06/P6000FT/D FG VV002 10/10 A2970 RMK FG8
                 SLP059 =
2019-05-20 23:11 METAR CYQM 202311Z 03004KT 020V100 1SM R06/P6000FT/U BR BKN002 OVC015 10/10
                 A2968 RMK SF6SC2 VIS LWR E SLP053 =
2019-05-20 23:01 METAR CYQM 202301Z 10007KT 3/4SM R06/P6000FT/U BR VCFG BKN002 OVC009 10/10 A2968
                 RMK SF6SF2 SLP054 =
2019-05-20 23:00 METAR CYQM 202300Z 10007KT 6SM BR VCFG SCT002 OVC009 10/10 A2968 RMK SF4SF4 VIS
                 N-SE 1/2 SLP053 =
2019-05-20 22:52 METAR CYQM 202252Z 10005KT 6SM BR SCT003 OVC009 10/10 A2968 RMK SF3SF5 SLP052 =
2019-05-20 22:45 METAR CYQM 202245Z 08005KT 4SM BR BKN003 OVC008 10/10 A2968 RMK ST7SF1 VIS LWR E
                 SLP053 =
2019-05-20 22:00 METAR CYQM 202200Z 02006KT 2SM -DZ BR BKN002 OVC004 10/10 A2969 RMK SF6SF2
                 SLP056 =
2019-05-20 21:39 METAR CYQM 202139Z 06003KT 020V100 1 1/2SM BR BKN004 OVC006 11/11 A2969 RMK
                 SF7SF1 SLP056 =
2019-05-20 21:00 METAR CYQM 202100Z 06004KT 1 1/4SM -DZ BR BKN003 OVC004 11/11 A2970 RMK SF6SF2
                 SLP059 =
2019-05-20 20:29 METAR CYQM 202029Z 05004KT 1 1/4SM -DZ BR OVC004 10/10 A2971 RMK SF8 SLP063 =
2019-05-20 20:00 METAR CYQM 202000Z VRB02KT 6SM -DZ BR OVC004 10/10 A2971 RMK SF8 VIS HIER S
                 SLP063 =
2019-05-20 19:00 METAR CYQM 201900Z 11003KT 050V130 4SM -DZ BR OVC005 10/10 A2971 RMK SF8 SLP062
                 =

Support USWX by starting your Amazon purchase here.